CYNR

METAR CYNR 042100Z AUTO 30016G22KT 9SM SCT140 31/02 A2951 RMK AO2 SLP987
METAR
LOCATION
CYNR
DATE - TIME
042100Z
WIND
300 TRUE @ 16 KNOTS GUSTS 22 KNOTS
VISIBILITY
9SM
RUNWAY VISUAL RANGE
NOT REPORTED
WEATHER
CLOUDINESS
SCT140
TEMP / DEWPOINT
31 ºC / 2 ºC
ALTIMETER
29.51 in. Hg
RECENT WEATHER
NOT REPORTED
WIND SHEAR
NOT REPORTED
REMARKS
RMK AO2 SLP987
SEA LEVEL PRESSURE: hPa

CYNR

METAR CYNR 042000Z AUTO 23006KT 9SM FEW160 32/M04 A2952 RMK AO2 SLP988
METAR
LOCATION
CYNR
DATE - TIME
042000Z
WIND
230 TRUE @ 6 KNOTS
VISIBILITY
9SM
RUNWAY VISUAL RANGE
NOT REPORTED
WEATHER
CLOUDINESS
FEW160
TEMP / DEWPOINT
32 ºC / -4 ºC
ALTIMETER
29.52 in. Hg
RECENT WEATHER
NOT REPORTED
WIND SHEAR
NOT REPORTED
REMARKS
RMK AO2 SLP988
SEA LEVEL PRESSURE: hPa

CYNR

METAR CYNR 041900Z AUTO 21008KT 9SM BKN160 31/02 A2954 RMK AO2 SLP994
METAR
LOCATION
CYNR
DATE - TIME
041900Z
WIND
210 TRUE @ 8 KNOTS
VISIBILITY
9SM
RUNWAY VISUAL RANGE
NOT REPORTED
WEATHER
CLOUDINESS
BKN160
TEMP / DEWPOINT
31 ºC / 2 ºC
ALTIMETER
29.54 in. Hg
RECENT WEATHER
NOT REPORTED
WIND SHEAR
NOT REPORTED
REMARKS
RMK AO2 SLP994
SEA LEVEL PRESSURE: hPa

Your time UTC time
 
 
Weather data provided by AXYS Technologies Inc., www.axystechnologies.com
 
Station History